createdAt,value
2019-05-20T00:00:53.844Z,155.97
2019-05-20T00:03:22.325Z,155.53
2019-05-20T00:05:50.849Z,201.27
2019-05-20T00:08:19.289Z,183.13
2019-05-20T00:10:47.824Z,166.10
2019-05-20T00:13:16.323Z,194.40
2019-05-20T00:15:44.788Z,179.00
2019-05-20T00:18:13.301Z,185.17
2019-05-20T00:20:41.883Z,171.50
2019-05-20T00:23:10.365Z,170.50
2019-05-20T00:25:38.792Z,175.13
2019-05-20T00:28:07.306Z,171.67
2019-05-20T00:30:35.760Z,147.63
2019-05-20T00:33:04.217Z,162.40
2019-05-20T00:35:32.716Z,165.93
2019-05-20T00:38:01.238Z,140.77
2019-05-20T00:40:29.685Z,153.47
2019-05-20T00:42:58.254Z,170.50
2019-05-20T00:45:26.733Z,165.00
2019-05-20T00:47:55.222Z,115.67
2019-05-20T00:50:23.724Z,139.30
2019-05-20T00:52:52.173Z,146.63
2019-05-20T00:55:24.973Z,147.63
2019-05-20T00:57:53.457Z,144.07
2019-05-20T01:00:22.012Z,142.67
2019-05-20T01:02:56.861Z,135.53
2019-05-20T01:05:20.744Z,129.83
2019-05-20T01:07:49.256Z,142.43
2019-05-20T01:10:17.782Z,136.70
2019-05-20T01:12:46.284Z,131.07
2019-05-20T01:15:15.457Z,127.27
2019-05-20T01:17:43.903Z,120.57
2019-05-20T01:20:12.392Z,116.30
2019-05-20T01:22:40.960Z,112.87
2019-05-20T01:25:09.487Z,127.40
2019-05-20T01:27:38.062Z,123.60
2019-05-20T01:30:10.130Z,110.20
2019-05-20T01:32:38.643Z,106.63
2019-05-20T01:35:07.137Z,106.93
2019-05-20T01:37:35.590Z,113.83
2019-05-20T01:40:04.281Z,109.13
2019-05-20T01:42:32.857Z,103.13
2019-05-20T01:45:01.386Z,99.10
2019-05-20T01:47:29.833Z,102.13
2019-05-20T01:49:58.400Z,103.00
2019-05-20T01:52:26.847Z,101.63
2019-05-20T01:54:55.347Z,95.23
2019-05-20T01:57:23.794Z,95.17
2019-05-20T01:59:52.308Z,90.03
2019-05-20T02:02:20.818Z,82.80
2019-05-20T02:04:49.266Z,97.23
2019-05-20T02:07:17.720Z,90.70
2019-05-20T02:09:46.217Z,84.10
2019-05-20T02:12:14.657Z,90.70
2019-05-20T02:14:47.537Z,97.00
2019-05-20T02:17:16.030Z,89.87
2019-05-20T02:19:44.545Z,88.60
2019-05-20T02:22:13.013Z,83.00
2019-05-20T02:24:41.481Z,97.53
2019-05-20T02:27:10.104Z,84.80
2019-05-20T02:29:38.608Z,89.37
2019-05-20T02:32:07.052Z,87.10
2019-05-20T02:34:35.501Z,89.30
2019-05-20T02:37:04.011Z,92.33
2019-05-20T02:39:32.449Z,90.60
2019-05-20T02:42:00.897Z,97.07
2019-05-20T02:44:29.405Z,105.60
2019-05-20T02:46:57.854Z,98.40
2019-05-20T02:49:26.346Z,96.47
2019-05-20T02:51:54.850Z,106.30
2019-05-20T02:54:23.303Z,78.77
2019-05-20T02:56:51.750Z,74.57
2019-05-20T02:59:20.240Z,76.43
2019-05-20T03:01:49.792Z,97.70
2019-05-20T03:04:18.363Z,85.50
2019-05-20T03:06:46.814Z,85.17
2019-05-20T03:09:15.266Z,96.30
2019-05-20T03:11:43.770Z,93.73
2019-05-20T03:14:12.217Z,107.33
2019-05-20T03:16:40.670Z,102.23
2019-05-20T03:19:09.173Z,99.37
2019-05-20T03:21:37.628Z,93.70
2019-05-20T03:24:06.085Z,106.93
2019-05-20T03:26:34.606Z,105.03
2019-05-20T03:29:03.134Z,85.83
2019-05-20T03:31:31.590Z,94.43
2019-05-20T03:34:00.145Z,102.80
2019-05-20T03:36:28.586Z,88.83
2019-05-20T03:38:57.082Z,96.23
2019-05-20T03:41:25.529Z,106.27
2019-05-20T03:43:53.989Z,99.07
2019-05-20T03:46:22.486Z,97.60
2019-05-20T03:48:50.930Z,97.83
2019-05-20T03:51:19.384Z,77.80
2019-05-20T03:53:47.875Z,90.40
2019-05-20T03:56:16.323Z,93.33
2019-05-20T03:58:44.810Z,80.07
2019-05-20T04:01:13.319Z,95.33
2019-05-20T04:03:41.809Z,84.30
2019-05-20T04:06:10.320Z,90.73
2019-05-20T04:08:38.874Z,85.63
2019-05-20T04:11:07.398Z,94.60
2019-05-20T04:13:35.851Z,99.93
2019-05-20T04:16:04.334Z,90.37
2019-05-20T04:18:32.794Z,77.63
2019-05-20T04:21:01.286Z,94.23
2019-05-20T04:23:29.801Z,80.97
2019-05-20T04:25:58.358Z,87.87
2019-05-20T04:28:26.803Z,73.33
2019-05-20T04:30:55.247Z,78.30
2019-05-20T04:33:23.736Z,75.50
2019-05-20T04:35:52.230Z,91.27
2019-05-20T04:38:20.674Z,81.40
2019-05-20T04:40:49.178Z,91.57
2019-05-20T04:43:17.627Z,89.40
2019-05-20T04:45:46.076Z,78.40
2019-05-20T04:48:14.569Z,76.27
2019-05-20T04:50:43.044Z,64.30
2019-05-20T04:53:11.469Z,56.80
2019-05-20T04:55:39.969Z,73.53
2019-05-20T04:58:08.422Z,66.93
2019-05-20T05:00:51.621Z,57.37
2019-05-20T05:03:20.334Z,60.57
2019-05-20T05:05:49.716Z,58.80
2019-05-20T05:08:22.027Z,83.33
2019-05-20T05:10:50.481Z,84.07
2019-05-20T05:13:19.011Z,74.70
2019-05-20T05:15:47.570Z,87.60
2019-05-20T05:18:16.017Z,88.43
2019-05-20T05:20:44.465Z,80.63
2019-05-20T05:23:13.049Z,71.73
2019-05-20T05:25:41.502Z,63.50
2019-05-20T05:28:09.948Z,73.70
2019-05-20T05:30:38.618Z,69.43
2019-05-20T05:33:07.052Z,85.70
2019-05-20T05:35:35.576Z,72.90
2019-05-20T05:38:04.183Z,57.83
2019-05-20T05:40:32.829Z,57.73
2019-05-20T05:43:01.704Z,51.43
2019-05-20T05:45:33.830Z,52.10
2019-05-20T05:48:02.353Z,43.47
2019-05-20T05:50:30.803Z,43.00
2019-05-20T05:52:59.881Z,53.20
2019-05-20T05:55:28.366Z,59.57
2019-05-20T05:57:58.290Z,62.73
2019-05-20T06:00:26.910Z,64.60
2019-05-20T06:02:55.468Z,54.97
2019-05-20T06:05:23.997Z,52.03
2019-05-20T06:07:52.852Z,55.83
2019-05-20T06:10:21.268Z,59.37
2019-05-20T06:12:49.772Z,45.30
2019-05-20T06:15:21.157Z,46.00
2019-05-20T06:17:49.678Z,54.73
2019-05-20T06:20:19.886Z,42.73
2019-05-20T06:22:48.338Z,45.13
2019-05-20T06:25:16.829Z,49.97
2019-05-20T06:27:45.302Z,52.00
2019-05-20T06:30:14.024Z,55.70
2019-05-20T06:32:42.549Z,46.03
2019-05-20T06:35:12.197Z,41.30
2019-05-20T06:37:42.294Z,46.47
2019-05-20T06:40:11.274Z,43.77
2019-05-20T06:42:40.717Z,43.07
2019-05-20T06:45:09.548Z,34.33
2019-05-20T06:47:39.847Z,41.47
2019-05-20T06:50:08.342Z,47.73
2019-05-20T06:52:37.997Z,60.37
2019-05-20T06:55:07.782Z,52.77
2019-05-20T06:57:36.325Z,49.90
2019-05-20T07:00:07.585Z,47.93
2019-05-20T07:02:36.181Z,48.07
2019-05-20T07:05:06.778Z,50.93
2019-05-20T07:07:35.235Z,49.13
2019-05-20T07:10:05.270Z,50.07
2019-05-20T07:12:41.324Z,49.03
2019-05-20T07:15:06.505Z,46.50
2019-05-20T07:17:34.999Z,43.97
2019-05-20T07:20:04.285Z,38.87
2019-05-20T07:22:32.793Z,44.90
2019-05-20T07:25:01.621Z,37.90
2019-05-20T07:27:30.472Z,32.43
2019-05-20T07:29:58.973Z,38.73
2019-05-20T07:32:27.413Z,34.93
2019-05-20T07:34:55.865Z,36.07
2019-05-20T07:37:24.521Z,36.20
2019-05-20T07:39:52.943Z,37.73
2019-05-20T07:42:21.451Z,41.97
2019-05-20T07:44:49.898Z,46.37
2019-05-20T07:47:18.354Z,43.23
2019-05-20T07:49:46.973Z,45.17
2019-05-20T07:52:15.406Z,42.03
2019-05-20T07:54:44.194Z,34.13
2019-05-20T07:57:12.690Z,27.47
2019-05-20T07:59:41.136Z,35.20
2019-05-20T08:02:09.600Z,43.70
2019-05-20T08:04:38.220Z,42.20
2019-05-20T08:07:26.040Z,41.00
2019-05-20T08:09:42.784Z,39.73
2019-05-20T08:12:06.999Z,36.30
2019-05-20T08:14:35.440Z,34.23
2019-05-20T08:17:03.935Z,34.00
2019-05-20T08:19:32.429Z,39.20
2019-05-20T08:22:00.954Z,29.47
2019-05-20T08:24:29.442Z,31.43
2019-05-20T08:26:57.894Z,35.20
2019-05-20T08:29:26.436Z,25.80
2019-05-20T08:31:55.029Z,31.20
2019-05-20T08:34:25.476Z,32.03
2019-05-20T08:36:53.701Z,33.40
2019-05-20T08:39:22.186Z,28.57
2019-05-20T08:41:50.649Z,29.60
2019-05-20T08:44:19.280Z,31.50
2019-05-20T08:46:47.799Z,32.80
2019-05-20T08:49:16.286Z,33.07
2019-05-20T08:51:44.905Z,33.40
2019-05-20T08:54:13.359Z,31.40
2019-05-20T08:56:41.802Z,36.07
2019-05-20T08:59:11.882Z,33.07
2019-05-20T09:01:40.404Z,31.60
2019-05-20T09:04:08.925Z,35.83
2019-05-20T09:06:37.466Z,30.47
2019-05-20T09:09:07.420Z,28.40
2019-05-20T09:11:36.883Z,31.17
2019-05-20T09:14:05.389Z,24.53
2019-05-20T09:16:33.969Z,21.37
2019-05-20T09:19:02.485Z,28.03
2019-05-20T09:21:30.999Z,21.23
2019-05-20T09:23:59.554Z,20.90
2019-05-20T09:26:27.968Z,28.30
2019-05-20T09:28:56.474Z,22.53
2019-05-20T09:31:25.095Z,26.53
2019-05-20T09:33:55.380Z,22.13
2019-05-20T09:36:25.913Z,25.97
2019-05-20T09:38:54.127Z,25.33
2019-05-20T09:41:22.645Z,27.27
2019-05-20T09:43:52.282Z,29.50
2019-05-20T09:46:20.910Z,30.10
2019-05-20T09:48:49.499Z,29.30
2019-05-20T09:51:19.743Z,42.27
2019-05-20T09:53:48.149Z,31.53
2019-05-20T09:56:16.790Z,29.43
2019-05-20T09:58:45.388Z,29.20
2019-05-20T10:01:13.801Z,30.27
2019-05-20T10:03:42.313Z,32.30
2019-05-20T10:06:10.822Z,35.50
2019-05-20T10:08:44.778Z,26.77
2019-05-20T10:11:09.466Z,23.13
2019-05-20T10:13:37.970Z,37.40
2019-05-20T10:16:06.413Z,33.03
2019-05-20T10:18:37.792Z,29.80
2019-05-20T10:21:05.168Z,24.50
2019-05-20T10:23:33.679Z,17.83
2019-05-20T10:26:02.101Z,30.10
2019-05-20T10:28:32.448Z,20.57
2019-05-20T10:31:01.941Z,29.90
2019-05-20T10:33:30.404Z,28.83
2019-05-20T10:35:58.974Z,29.33
2019-05-20T10:38:27.478Z,28.70
2019-05-20T10:40:55.936Z,27.73
2019-05-20T10:43:24.423Z,30.77
2019-05-20T10:45:52.865Z,29.57
2019-05-20T10:48:21.380Z,25.93
2019-05-20T10:50:49.876Z,24.03
2019-05-20T10:53:18.329Z,21.33
2019-05-20T10:55:46.829Z,32.23
2019-05-20T10:58:15.359Z,26.20
2019-05-20T11:01:01.046Z,32.90
2019-05-20T11:03:14.101Z,27.07
2019-05-20T11:05:43.094Z,30.67
2019-05-20T11:08:11.580Z,26.20
2019-05-20T11:10:40.148Z,26.20
2019-05-20T11:13:08.612Z,35.17
2019-05-20T11:15:37.061Z,30.50
2019-05-20T11:18:05.709Z,25.83
2019-05-20T11:20:34.160Z,36.00
2019-05-20T11:23:02.620Z,36.07
2019-05-20T11:25:31.105Z,27.70
2019-05-20T11:27:59.612Z,23.57
2019-05-20T11:30:28.127Z,29.97
2019-05-20T11:32:56.575Z,25.53
2019-05-20T11:35:25.147Z,27.70
2019-05-20T11:37:53.600Z,30.33
2019-05-20T11:40:22.109Z,34.63
2019-05-20T11:42:50.694Z,24.10
2019-05-20T11:45:19.334Z,27.07
2019-05-20T11:47:47.760Z,26.63
2019-05-20T11:50:16.404Z,34.00
2019-05-20T11:52:45.128Z,27.37
2019-05-20T11:55:13.760Z,26.43
2019-05-20T11:57:42.564Z,27.07
2019-05-20T12:00:11.650Z,30.60
2019-05-20T12:02:40.170Z,27.17
2019-05-20T12:05:08.894Z,31.23
2019-05-20T12:07:37.506Z,29.27
2019-05-20T12:10:08.034Z,31.40
2019-05-20T12:12:38.636Z,32.27
2019-05-20T12:15:08.475Z,35.00
2019-05-20T12:17:37.309Z,34.50
2019-05-20T12:20:08.409Z,29.27
2019-05-20T12:22:37.852Z,32.03
2019-05-20T12:25:07.297Z,28.70
2019-05-20T12:27:35.861Z,26.13
2019-05-20T12:30:05.106Z,35.83
2019-05-20T12:32:33.553Z,24.90
2019-05-20T12:35:02.081Z,26.30
2019-05-20T12:37:32.292Z,30.47
2019-05-20T12:40:07.097Z,24.47
2019-05-20T12:42:30.813Z,28.13
2019-05-20T12:44:59.422Z,30.57
2019-05-20T12:47:29.656Z,33.77
2019-05-20T12:49:58.120Z,32.83
2019-05-20T12:52:26.579Z,28.50
2019-05-20T12:55:07.095Z,31.17
2019-05-20T12:57:25.169Z,22.10
2019-05-20T12:59:53.619Z,24.20
2019-05-20T13:02:22.069Z,25.23
2019-05-20T13:04:50.553Z,25.37
2019-05-20T13:07:19.046Z,21.53
2019-05-20T13:09:47.530Z,26.83
2019-05-20T13:12:16.024Z,25.80
2019-05-20T13:14:44.473Z,25.60
2019-05-20T13:17:13.098Z,21.90
2019-05-20T13:19:41.605Z,24.57
2019-05-20T13:22:10.050Z,26.10
2019-05-20T13:24:38.498Z,27.57
2019-05-20T13:27:06.996Z,38.97
2019-05-20T13:29:35.511Z,39.27
2019-05-20T13:32:04.025Z,44.43
2019-05-20T13:34:32.513Z,34.33
2019-05-20T13:37:01.020Z,30.63
2019-05-20T13:39:29.473Z,32.70
2019-05-20T13:41:57.920Z,29.47
2019-05-20T13:44:26.497Z,36.53
2019-05-20T13:46:54.986Z,38.23
2019-05-20T13:49:23.444Z,40.43
2019-05-20T13:51:52.039Z,39.47
2019-05-20T13:54:20.502Z,39.60
2019-05-20T13:56:48.969Z,36.03
2019-05-20T13:59:19.023Z,43.27
2019-05-20T14:01:47.508Z,46.70
2019-05-20T14:04:17.404Z,34.63
2019-05-20T14:06:45.894Z,34.73
2019-05-20T14:09:14.473Z,36.70
2019-05-20T14:11:43.042Z,37.53
2019-05-20T14:14:14.190Z,36.70
2019-05-20T14:16:41.606Z,50.47
2019-05-20T14:19:10.117Z,45.30
2019-05-20T14:21:38.632Z,46.57
2019-05-20T14:24:07.085Z,47.03
2019-05-20T14:26:35.546Z,51.13
2019-05-20T14:29:04.060Z,54.70
2019-05-20T14:31:32.573Z,41.67
2019-05-20T14:34:01.108Z,46.60
2019-05-20T14:36:39.538Z,40.37
2019-05-20T14:38:59.905Z,41.47
2019-05-20T14:41:28.419Z,42.43
2019-05-20T14:43:57.346Z,45.00
2019-05-20T14:46:25.863Z,47.83
2019-05-20T14:48:54.353Z,40.97
2019-05-20T14:51:22.871Z,50.47
2019-05-20T14:53:51.557Z,48.83
2019-05-20T14:56:20.136Z,39.40
2019-05-20T14:58:48.625Z,37.63
2019-05-20T15:01:17.076Z,37.87
2019-05-20T15:03:45.585Z,31.10
2019-05-20T15:06:14.076Z,32.67
2019-05-20T15:08:42.762Z,41.10
2019-05-20T15:11:12.105Z,41.07
2019-05-20T15:13:40.596Z,45.30
2019-05-20T15:16:09.093Z,43.70
2019-05-20T15:18:37.536Z,32.70
2019-05-20T15:21:06.004Z,42.40
2019-05-20T15:23:34.517Z,34.00
2019-05-20T15:26:02.984Z,32.50
2019-05-20T15:28:31.417Z,30.67
2019-05-20T15:30:59.916Z,31.93
2019-05-20T15:33:28.414Z,31.97
2019-05-20T15:35:56.857Z,28.27
2019-05-20T15:38:25.373Z,33.70
2019-05-20T15:40:53.865Z,37.60
2019-05-20T15:43:22.324Z,37.87
2019-05-20T15:45:50.788Z,36.43
2019-05-20T15:48:19.308Z,34.73
2019-05-20T15:50:47.713Z,33.40
2019-05-20T15:53:16.282Z,32.77
2019-05-20T15:55:44.728Z,31.93
2019-05-20T15:58:13.206Z,29.87
2019-05-20T16:00:41.785Z,32.63
2019-05-20T16:03:10.233Z,34.93
2019-05-20T16:05:38.689Z,32.97
2019-05-20T16:08:07.200Z,34.47
2019-05-20T16:10:35.646Z,31.60
2019-05-20T16:13:04.149Z,31.83
2019-05-20T16:15:32.787Z,36.90
2019-05-20T16:18:01.334Z,43.40
2019-05-20T16:20:29.827Z,42.67
2019-05-20T16:22:58.499Z,36.13
2019-05-20T16:25:26.982Z,34.93
2019-05-20T16:27:55.429Z,32.03
2019-05-20T16:30:23.950Z,39.63
2019-05-20T16:32:52.424Z,37.07
2019-05-20T16:35:20.873Z,35.07
2019-05-20T16:37:49.368Z,38.93
2019-05-20T16:40:17.818Z,37.63
2019-05-20T16:42:46.310Z,42.27
2019-05-20T16:45:17.362Z,46.43
2019-05-20T16:47:45.844Z,45.97
2019-05-20T16:50:14.338Z,34.27
2019-05-20T16:52:42.785Z,38.13
2019-05-20T16:55:11.278Z,40.73
2019-05-20T16:57:39.729Z,38.80
2019-05-20T17:00:27.876Z,42.23
2019-05-20T17:02:38.352Z,43.00
2019-05-20T17:05:07.276Z,35.53
2019-05-20T17:07:35.780Z,50.70
2019-05-20T17:10:06.474Z,46.67
2019-05-20T17:12:34.968Z,47.33
2019-05-20T17:15:03.618Z,48.30
2019-05-20T17:17:32.082Z,43.70
2019-05-20T17:20:00.526Z,38.97
2019-05-20T17:22:29.013Z,37.00
2019-05-20T17:24:57.458Z,41.60
2019-05-20T17:27:26.067Z,43.83
2019-05-20T17:29:54.567Z,37.37
2019-05-20T17:32:23.086Z,37.57
2019-05-20T17:34:51.643Z,32.13
2019-05-20T17:37:20.110Z,33.33
2019-05-20T17:39:48.662Z,34.40
2019-05-20T17:42:17.156Z,37.13
2019-05-20T17:44:45.673Z,32.63
2019-05-20T17:47:14.136Z,37.43
2019-05-20T17:49:42.674Z,33.30
2019-05-20T17:52:11.118Z,26.70
2019-05-20T17:54:39.562Z,29.20
2019-05-20T17:57:08.061Z,29.20
2019-05-20T17:59:36.509Z,29.30
2019-05-20T18:02:06.597Z,30.00
2019-05-20T18:04:35.094Z,32.47
2019-05-20T18:07:04.757Z,32.73
2019-05-20T18:09:34.852Z,32.70
2019-05-20T18:12:03.364Z,31.57
2019-05-20T18:14:31.829Z,31.00
2019-05-20T18:17:00.346Z,31.77
2019-05-20T18:19:28.833Z,30.80
2019-05-20T18:21:57.284Z,39.77
2019-05-20T18:24:25.738Z,33.90
2019-05-20T18:26:54.222Z,33.47
2019-05-20T18:29:22.736Z,39.30
2019-05-20T18:31:51.202Z,36.97
2019-05-20T18:34:19.642Z,38.77
2019-05-20T18:36:48.165Z,41.63
2019-05-20T18:39:16.618Z,34.93
2019-05-20T18:41:45.073Z,38.03
2019-05-20T18:44:13.580Z,42.87
2019-05-20T18:46:42.025Z,32.20
2019-05-20T18:49:10.465Z,40.63
2019-05-20T18:51:38.973Z,41.93
2019-05-20T18:54:07.417Z,33.97
2019-05-20T18:56:35.929Z,37.87
2019-05-20T18:59:04.377Z,38.30
2019-05-20T19:01:47.314Z,41.30
2019-05-20T19:04:02.975Z,41.03
2019-05-20T19:06:31.411Z,37.40
2019-05-20T19:08:59.913Z,36.00
2019-05-20T19:11:28.381Z,34.50
2019-05-20T19:13:56.828Z,41.77
2019-05-20T19:16:25.336Z,28.70
2019-05-20T19:18:53.785Z,36.63
2019-05-20T19:21:22.254Z,30.10
2019-05-20T19:23:50.732Z,27.60
2019-05-20T19:26:25.069Z,27.87
2019-05-20T19:28:49.398Z,31.73
2019-05-20T19:31:17.917Z,32.07
2019-05-20T19:33:46.364Z,29.23
2019-05-20T19:36:14.814Z,32.00
2019-05-20T19:38:43.453Z,37.60
2019-05-20T19:41:11.905Z,35.03
2019-05-20T19:43:40.356Z,28.87
2019-05-20T19:46:08.850Z,30.30
2019-05-20T19:48:37.297Z,38.40
2019-05-20T19:51:05.749Z,32.50
2019-05-20T19:53:34.241Z,30.03
2019-05-20T19:56:02.741Z,31.97
2019-05-20T19:58:31.210Z,36.87
2019-05-20T20:00:59.712Z,34.13
2019-05-20T20:03:28.222Z,35.73
2019-05-20T20:05:56.661Z,38.13
2019-05-20T20:08:25.188Z,36.60
2019-05-20T20:10:53.701Z,34.33
2019-05-20T20:13:22.158Z,32.77
2019-05-20T20:15:50.617Z,27.23
2019-05-20T20:18:19.107Z,30.00
2019-05-20T20:20:47.624Z,39.90
2019-05-20T20:23:16.077Z,38.03
2019-05-20T20:25:44.526Z,35.33
2019-05-20T20:28:13.074Z,34.50
2019-05-20T20:30:41.481Z,39.67
2019-05-20T20:33:09.937Z,34.37
2019-05-20T20:35:38.605Z,33.40
2019-05-20T20:38:07.090Z,35.77
2019-05-20T20:40:35.584Z,41.07
2019-05-20T20:43:04.033Z,35.53
2019-05-20T20:45:32.521Z,30.80
2019-05-20T20:48:00.971Z,32.50
2019-05-20T20:50:29.473Z,33.47
2019-05-20T20:52:57.926Z,39.20
2019-05-20T20:55:26.369Z,36.30
2019-05-20T20:57:54.860Z,35.90
2019-05-20T21:00:23.317Z,42.37
2019-05-20T21:02:53.696Z,37.33
2019-05-20T21:05:21.996Z,29.77
2019-05-20T21:07:51.794Z,33.73
2019-05-20T21:10:20.457Z,35.77
2019-05-20T21:12:48.907Z,36.73
2019-05-20T21:15:17.419Z,45.50
2019-05-20T21:17:45.912Z,39.00
2019-05-20T21:20:14.425Z,39.03
2019-05-20T21:22:43.089Z,35.93
2019-05-20T21:25:11.612Z,33.17
2019-05-20T21:27:40.066Z,37.40
2019-05-20T21:30:09.293Z,31.50
2019-05-20T21:32:37.788Z,31.40
2019-05-20T21:35:06.346Z,32.23
2019-05-20T21:37:34.789Z,28.90
2019-05-20T21:40:03.290Z,28.10
2019-05-20T21:42:31.742Z,32.33
2019-05-20T21:45:00.192Z,30.63
2019-05-20T21:47:28.677Z,35.40
2019-05-20T21:49:57.133Z,36.67
2019-05-20T21:52:25.629Z,35.63
2019-05-20T21:54:54.079Z,32.70
2019-05-20T21:57:22.530Z,31.17
2019-05-20T21:59:51.030Z,33.30
2019-05-20T22:02:19.478Z,28.00
2019-05-20T22:04:47.939Z,27.37
2019-05-20T22:07:16.430Z,32.20
2019-05-20T22:09:44.873Z,29.03
2019-05-20T22:12:13.329Z,26.80
2019-05-20T22:14:41.809Z,29.83
2019-05-20T22:17:10.298Z,27.43
2019-05-20T22:19:38.736Z,26.17
2019-05-20T22:22:25.114Z,35.63
2019-05-20T22:24:53.583Z,30.00
2019-05-20T22:27:22.089Z,28.07
2019-05-20T22:29:50.547Z,32.60
2019-05-20T22:32:19.043Z,42.13
2019-05-20T22:34:53.777Z,27.83
2019-05-20T22:37:17.632Z,29.97
2019-05-20T22:39:46.073Z,33.33
2019-05-20T22:42:14.656Z,37.27
2019-05-20T22:44:43.133Z,31.13
2019-05-20T22:47:11.558Z,28.00
2019-05-20T22:49:40.048Z,28.97
2019-05-20T22:52:08.492Z,33.10
2019-05-20T22:54:37.003Z,35.43
2019-05-20T22:57:05.478Z,28.43
2019-05-20T22:59:34.002Z,29.60
2019-05-20T23:02:02.529Z,35.37
2019-05-20T23:04:30.985Z,27.33
2019-05-20T23:06:59.428Z,30.47
2019-05-20T23:09:27.920Z,33.93
2019-05-20T23:11:56.414Z,27.40
2019-05-20T23:14:25.437Z,28.83
2019-05-20T23:16:53.881Z,29.67
2019-05-20T23:19:22.371Z,30.60
2019-05-20T23:21:50.857Z,27.97
2019-05-20T23:24:19.311Z,35.07
2019-05-20T23:26:47.763Z,34.90
2019-05-20T23:29:16.256Z,31.00
2019-05-20T23:31:44.697Z,36.77
2019-05-20T23:34:13.484Z,32.33
2019-05-20T23:36:42.038Z,33.40
2019-05-20T23:39:10.482Z,30.30
2019-05-20T23:41:38.973Z,37.43
2019-05-20T23:44:07.429Z,32.30
2019-05-20T23:46:35.888Z,40.43
2019-05-20T23:49:04.386Z,37.60
2019-05-20T23:51:32.832Z,33.77
2019-05-20T23:54:01.276Z,31.30
2019-05-20T23:56:29.781Z,32.63
2019-05-20T23:58:58.229Z,28.27
